createdAt,value
2023-03-26T00:01:37.456Z,1.00
2023-03-26T00:04:46.563Z,1.10
2023-03-26T00:07:55.924Z,0.90
2023-03-26T00:11:03.952Z,0.98
2023-03-26T00:14:13.972Z,0.70
2023-03-26T00:17:22.659Z,1.30
2023-03-26T00:20:32.689Z,1.13
2023-03-26T00:23:42.136Z,1.23
2023-03-26T00:26:53.476Z,0.90
2023-03-26T00:30:04.078Z,1.83
2023-03-26T00:33:12.458Z,1.20
2023-03-26T00:36:20.631Z,1.30
2023-03-26T00:39:33.609Z,1.10
2023-03-26T00:42:42.527Z,1.20
2023-03-26T00:45:51.538Z,1.50
2023-03-26T00:48:59.938Z,1.10
2023-03-26T00:52:08.721Z,1.60
2023-03-26T00:55:19.123Z,0.90
2023-03-26T00:58:27.268Z,1.20
2023-03-26T01:01:36.084Z,1.10
2023-03-26T01:04:45.988Z,1.40
2023-03-26T01:07:53.803Z,1.30
2023-03-26T01:11:07.345Z,1.35
2023-03-26T01:14:17.308Z,1.73
2023-03-26T01:17:25.732Z,1.85
2023-03-26T01:20:33.596Z,1.00
2023-03-26T01:23:44.870Z,1.60
2023-03-26T01:27:04.384Z,1.40
2023-03-26T01:30:16.985Z,1.20
2023-03-26T01:33:30.113Z,1.42
2023-03-26T01:36:40.720Z,1.35
2023-03-26T01:39:53.275Z,1.00
2023-03-26T01:43:06.719Z,1.52
2023-03-26T01:46:15.047Z,1.52
2023-03-26T01:49:22.842Z,1.35
2023-03-26T01:52:31.632Z,1.17
2023-03-26T01:55:49.683Z,1.45
2023-03-26T01:59:09.881Z,1.58
2023-03-26T02:02:21.651Z,1.25
2023-03-26T02:05:31.675Z,1.60
2023-03-26T02:08:41.667Z,1.60
2023-03-26T02:11:49.893Z,1.20
2023-03-26T02:15:00.111Z,1.42
2023-03-26T02:18:10.955Z,1.90
2023-03-26T02:21:21.611Z,1.17
2023-03-26T02:24:29.860Z,1.38
2023-03-26T02:27:39.270Z,1.50
2023-03-26T02:30:52.492Z,1.90
2023-03-26T02:34:00.803Z,2.40
2023-03-26T02:37:11.420Z,1.35
2023-03-26T02:40:22.811Z,1.70
2023-03-26T02:43:32.075Z,1.30
2023-03-26T02:46:41.355Z,1.75
2023-03-26T02:50:12.252Z,1.40
2023-03-26T02:53:39.445Z,1.90
2023-03-26T02:57:16.555Z,1.48
2023-03-26T03:00:38.486Z,1.20
2023-03-26T03:04:10.523Z,1.60
2023-03-26T03:07:18.852Z,1.25
2023-03-26T03:10:27.585Z,1.60
2023-03-26T03:13:46.375Z,1.35
2023-03-26T03:16:58.489Z,1.60
2023-03-26T03:20:10.240Z,1.52
2023-03-26T03:23:19.956Z,1.80
2023-03-26T03:26:29.686Z,1.20
2023-03-26T03:29:39.400Z,1.25
2023-03-26T03:33:07.218Z,1.52
2023-03-26T03:36:20.584Z,1.65
2023-03-26T03:39:38.170Z,1.60
2023-03-26T03:42:46.455Z,1.50
2023-03-26T03:45:56.700Z,1.27
2023-03-26T03:49:23.603Z,1.80
2023-03-26T03:52:33.645Z,1.83
2023-03-26T03:55:41.955Z,1.80
2023-03-26T03:58:50.510Z,1.67
2023-03-26T04:02:07.102Z,1.20
2023-03-26T04:05:31.486Z,1.40
2023-03-26T04:08:41.015Z,1.77
2023-03-26T04:11:50.768Z,1.27
2023-03-26T04:15:17.496Z,1.88
2023-03-26T04:18:27.904Z,1.52
2023-03-26T04:21:38.323Z,2.05
2023-03-26T04:24:48.846Z,1.58
2023-03-26T04:28:30.903Z,1.33
2023-03-26T04:32:06.934Z,1.38
2023-03-26T04:35:16.310Z,1.60
2023-03-26T04:38:28.890Z,1.30
2023-03-26T04:41:39.129Z,1.40
2023-03-26T04:44:52.495Z,1.25
2023-03-26T04:48:01.031Z,1.45
2023-03-26T04:51:09.940Z,1.90
2023-03-26T04:54:18.554Z,1.40
2023-03-26T04:57:38.335Z,1.27
2023-03-26T05:00:53.895Z,0.98
2023-03-26T05:04:02.355Z,1.35
2023-03-26T05:07:11.457Z,1.38
2023-03-26T05:10:27.344Z,1.35
2023-03-26T05:13:59.283Z,1.80
2023-03-26T05:17:10.793Z,1.40
2023-03-26T05:20:21.337Z,1.27
2023-03-26T05:23:30.066Z,1.48
2023-03-26T05:26:54.340Z,1.35
2023-03-26T05:30:07.145Z,1.23
2023-03-26T05:33:22.743Z,1.25
2023-03-26T05:36:39.804Z,1.10
2023-03-26T05:40:21.341Z,1.30
2023-03-26T05:43:34.847Z,1.10
2023-03-26T05:46:56.302Z,1.17
2023-03-26T05:50:08.475Z,1.27
2023-03-26T05:53:19.255Z,1.23
2023-03-26T05:56:45.882Z,1.02
2023-03-26T06:00:13.121Z,1.45
2023-03-26T06:03:28.480Z,0.93
2023-03-26T06:06:58.780Z,1.10
2023-03-26T06:10:09.400Z,1.00
2023-03-26T06:13:17.634Z,1.20
2023-03-26T06:16:28.258Z,1.48
2023-03-26T06:19:56.471Z,1.00
2023-03-26T06:23:16.740Z,1.13
2023-03-26T06:26:44.859Z,1.13
2023-03-26T06:30:12.640Z,1.02
2023-03-26T06:33:45.993Z,1.10
2023-03-26T06:36:56.783Z,0.90
2023-03-26T06:40:05.309Z,1.42
2023-03-26T06:43:33.665Z,1.23
2023-03-26T06:47:07.725Z,1.17
2023-03-26T06:50:32.094Z,1.10
2023-03-26T06:53:54.752Z,1.23
2023-03-26T06:57:21.593Z,0.85
2023-03-26T07:01:04.512Z,0.82
2023-03-26T07:04:31.178Z,0.93
2023-03-26T07:07:57.988Z,0.90
2023-03-26T07:11:27.002Z,1.35
2023-03-26T07:15:04.380Z,0.90
2023-03-26T07:18:34.972Z,1.00
2023-03-26T07:21:46.518Z,0.95
2023-03-26T07:25:24.110Z,1.10
2023-03-26T07:29:11.456Z,1.20
2023-03-26T07:32:43.257Z,1.20
2023-03-26T07:36:13.876Z,1.00
2023-03-26T07:39:45.786Z,1.08
2023-03-26T07:43:16.975Z,1.08
2023-03-26T07:46:53.510Z,1.05
2023-03-26T07:50:19.508Z,1.23
2023-03-26T07:53:53.892Z,1.02
2023-03-26T07:57:25.288Z,1.00
2023-03-26T08:00:58.079Z,1.17
2023-03-26T08:04:30.120Z,0.88
2023-03-26T08:08:06.698Z,0.85
2023-03-26T08:11:27.049Z,1.10
2023-03-26T08:14:49.321Z,1.15
2023-03-26T08:17:59.433Z,1.15
2023-03-26T08:21:11.124Z,0.80
2023-03-26T08:24:22.177Z,1.07
2023-03-26T08:27:37.697Z,1.27
2023-03-26T08:30:46.946Z,0.90
2023-03-26T08:33:55.109Z,0.90
2023-03-26T08:37:04.644Z,0.80
2023-03-26T08:40:14.239Z,0.82
2023-03-26T08:43:48.087Z,1.30
2023-03-26T08:47:04.622Z,1.00
2023-03-26T08:50:24.116Z,1.10
2023-03-26T08:53:53.662Z,1.10
2023-03-26T08:57:11.075Z,1.20
2023-03-26T09:00:36.989Z,1.38
2023-03-26T09:04:12.775Z,0.90
2023-03-26T09:07:41.416Z,1.35
2023-03-26T09:11:04.967Z,1.10
2023-03-26T09:14:44.206Z,1.05
2023-03-26T09:18:31.362Z,1.05
2023-03-26T09:22:09.211Z,0.75
2023-03-26T09:25:46.156Z,1.20
2023-03-26T09:29:27.876Z,1.00
2023-03-26T09:33:01.888Z,1.00
2023-03-26T09:36:27.695Z,1.17
2023-03-26T09:39:43.483Z,1.20
2023-03-26T09:42:54.454Z,1.20
2023-03-26T09:46:07.953Z,2.15
2023-03-26T09:49:39.011Z,1.35
2023-03-26T09:53:26.510Z,1.33
2023-03-26T09:56:39.913Z,1.50
2023-03-26T09:59:57.255Z,1.00
2023-03-26T10:03:27.191Z,1.33
2023-03-26T10:06:45.868Z,1.33
2023-03-26T10:09:55.456Z,0.98
2023-03-26T10:13:14.539Z,1.23
2023-03-26T10:16:26.945Z,1.10
2023-03-26T10:19:48.363Z,1.45
2023-03-26T10:23:06.538Z,1.35
2023-03-26T10:26:29.044Z,1.45
2023-03-26T10:29:56.684Z,1.10
2023-03-26T10:33:14.735Z,1.00
2023-03-26T10:36:29.682Z,1.75
2023-03-26T10:40:16.284Z,1.55
2023-03-26T10:44:24.179Z,1.10
2023-03-26T10:47:41.960Z,1.50
2023-03-26T10:51:06.180Z,1.35
2023-03-26T10:54:16.632Z,1.02
2023-03-26T10:57:31.213Z,1.40
2023-03-26T11:00:40.510Z,1.23
2023-03-26T11:03:51.822Z,0.98
2023-03-26T11:07:05.197Z,1.02
2023-03-26T11:10:14.167Z,1.10
2023-03-26T11:13:27.038Z,1.60
2023-03-26T11:16:50.333Z,1.33
2023-03-26T11:20:00.287Z,1.20
2023-03-26T11:23:19.859Z,1.05
2023-03-26T11:26:28.986Z,1.45
2023-03-26T11:29:44.492Z,1.30
2023-03-26T11:32:54.234Z,1.02
2023-03-26T11:36:03.671Z,1.05
2023-03-26T11:39:13.708Z,1.48
2023-03-26T11:42:24.046Z,1.33
2023-03-26T11:45:36.126Z,1.20
2023-03-26T11:48:46.229Z,1.40
2023-03-26T11:51:54.392Z,1.52
2023-03-26T11:55:03.165Z,2.33
2023-03-26T11:58:19.635Z,1.35
2023-03-26T12:01:30.905Z,1.20
2023-03-26T12:04:40.587Z,1.05
2023-03-26T12:07:52.311Z,1.48
2023-03-26T12:11:02.263Z,1.10
2023-03-26T12:14:17.550Z,1.02
2023-03-26T12:17:31.837Z,0.90
2023-03-26T12:20:40.438Z,1.20
2023-03-26T12:23:59.096Z,1.08
2023-03-26T12:27:22.142Z,1.20
2023-03-26T12:33:40.481Z,1.17
2023-03-26T12:36:53.303Z,1.10
2023-03-26T12:44:48.416Z,1.10
2023-03-26T12:47:59.261Z,1.30
2023-03-26T12:50:34.427Z,0.95
2023-03-26T12:53:59.198Z,1.17
2023-03-26T12:57:30.914Z,1.02
2023-03-26T13:00:46.594Z,1.20
2023-03-26T13:04:08.446Z,1.08
2023-03-26T13:07:23.568Z,1.10
2023-03-26T13:10:38.107Z,1.10
2023-03-26T13:14:04.626Z,1.17
2023-03-26T13:17:16.942Z,0.82
2023-03-26T13:20:28.071Z,0.93
2023-03-26T13:23:41.614Z,1.30
2023-03-26T13:26:57.262Z,0.95
2023-03-26T13:30:08.850Z,1.38
2023-03-26T13:33:39.137Z,0.88
2023-03-26T13:36:50.586Z,0.98
2023-03-26T13:40:06.713Z,0.98
2023-03-26T13:43:27.288Z,1.55
2023-03-26T13:46:36.173Z,0.98
2023-03-26T13:49:45.399Z,0.82
2023-03-26T13:52:55.947Z,0.90
2023-03-26T13:56:05.574Z,0.88
2023-03-26T13:59:15.521Z,0.82
2023-03-26T14:02:25.701Z,0.95
2023-03-26T14:05:36.419Z,0.70
2023-03-26T14:08:45.769Z,0.90
2023-03-26T14:12:03.210Z,1.20
2023-03-26T14:15:12.364Z,1.08
2023-03-26T14:18:32.312Z,0.77
2023-03-26T14:21:53.084Z,0.82
2023-03-26T14:25:10.319Z,0.88
2023-03-26T14:28:49.164Z,1.00
2023-03-26T14:32:04.540Z,0.90
2023-03-26T14:35:21.678Z,0.95
2023-03-26T14:38:54.772Z,0.80
2023-03-26T14:42:03.462Z,1.05
2023-03-26T14:45:48.532Z,1.13
2023-03-26T14:49:38.263Z,0.82
2023-03-26T14:52:48.706Z,0.73
2023-03-26T14:56:36.540Z,0.70
2023-03-26T15:00:17.802Z,0.88
2023-03-26T15:04:01.220Z,1.13
2023-03-26T15:11:07.732Z,0.82
2023-03-26T15:14:38.192Z,0.98
2023-03-26T15:17:55.653Z,0.80
2023-03-26T15:21:33.782Z,0.90
2023-03-26T15:25:01.335Z,1.02
2023-03-26T15:28:33.506Z,0.75
2023-03-26T15:32:30.203Z,0.80
2023-03-26T15:36:04.796Z,0.90
2023-03-26T15:39:38.155Z,0.90
2023-03-26T15:46:24.528Z,0.85
2023-03-26T15:49:39.701Z,1.00
2023-03-26T15:52:49.155Z,0.73
2023-03-26T15:56:13.768Z,0.70
2023-03-26T15:59:38.359Z,0.50
2023-03-26T16:02:53.598Z,0.65
2023-03-26T16:06:27.873Z,0.88
2023-03-26T16:09:54.368Z,0.70
2023-03-26T16:13:31.324Z,0.70
2023-03-26T16:17:07.962Z,0.60
2023-03-26T16:20:22.301Z,0.65
2023-03-26T16:23:31.615Z,1.20
2023-03-26T16:26:46.217Z,0.77
2023-03-26T16:30:31.661Z,0.77
2023-03-26T16:33:40.190Z,0.85
2023-03-26T16:36:49.809Z,0.80
2023-03-26T16:39:57.734Z,0.85
2023-03-26T16:43:17.793Z,0.80
2023-03-26T16:46:34.937Z,0.75
2023-03-26T16:50:08.802Z,1.00
2023-03-26T16:53:34.278Z,0.77
2023-03-26T16:56:46.033Z,1.08
2023-03-26T17:00:28.235Z,0.70
2023-03-26T17:03:44.957Z,0.70
2023-03-26T17:07:01.542Z,0.80
2023-03-26T17:10:14.657Z,0.70
2023-03-26T17:13:24.110Z,0.90
2023-03-26T17:16:34.700Z,0.70
2023-03-26T17:19:47.697Z,0.80
2023-03-26T17:22:59.328Z,0.52
2023-03-26T17:26:11.231Z,0.60
2023-03-26T17:29:35.436Z,0.80
2023-03-26T17:32:59.830Z,0.70
2023-03-26T17:36:29.444Z,0.88
2023-03-26T17:40:36.943Z,0.57
2023-03-26T17:43:46.055Z,0.73
2023-03-26T17:46:54.312Z,1.08
2023-03-26T17:50:05.276Z,0.98
2023-03-26T17:53:18.352Z,0.70
2023-03-26T17:56:29.633Z,1.05
2023-03-26T17:59:39.224Z,0.85
2023-03-26T18:02:50.536Z,0.85
2023-03-26T18:06:00.863Z,0.70
2023-03-26T18:09:16.092Z,0.80
2023-03-26T18:12:36.426Z,0.93
2023-03-26T18:15:50.723Z,1.00
2023-03-26T18:18:59.585Z,0.75
2023-03-26T18:22:07.961Z,0.63
2023-03-26T18:25:23.493Z,0.60
2023-03-26T18:28:32.588Z,0.80
2023-03-26T18:31:42.107Z,0.68
2023-03-26T18:34:52.451Z,0.85
2023-03-26T18:38:00.373Z,0.60
2023-03-26T18:41:16.731Z,0.77
2023-03-26T18:44:24.672Z,1.00
2023-03-26T18:47:32.699Z,0.73
2023-03-26T18:50:41.994Z,0.88
2023-03-26T18:53:51.653Z,1.02
2023-03-26T18:57:01.760Z,0.57
2023-03-26T19:00:25.366Z,1.00
2023-03-26T19:03:35.693Z,0.77
2023-03-26T19:06:43.732Z,0.75
2023-03-26T19:09:52.505Z,0.98
2023-03-26T19:13:02.424Z,1.00
2023-03-26T19:16:14.066Z,0.80
2023-03-26T19:19:27.614Z,0.80
2023-03-26T19:22:35.459Z,1.05
2023-03-26T19:25:44.679Z,0.95
2023-03-26T19:28:54.543Z,0.75
2023-03-26T19:32:03.457Z,0.75
2023-03-26T19:35:20.407Z,0.77
2023-03-26T19:38:29.205Z,0.80
2023-03-26T19:41:38.794Z,0.63
2023-03-26T19:44:48.052Z,0.90
2023-03-26T19:48:11.672Z,0.82
2023-03-26T19:51:23.927Z,1.02
2023-03-26T19:54:31.965Z,0.80
2023-03-26T19:57:40.092Z,0.73
2023-03-26T20:00:49.598Z,0.98
2023-03-26T20:03:59.033Z,1.02
2023-03-26T20:07:14.523Z,0.73
2023-03-26T20:10:22.412Z,1.10
2023-03-26T20:13:31.184Z,1.17
2023-03-26T20:16:41.611Z,0.75
2023-03-26T20:19:52.390Z,0.80
2023-03-26T20:23:01.496Z,0.73
2023-03-26T20:26:12.631Z,1.00
2023-03-26T20:29:20.890Z,0.70
2023-03-26T20:32:30.319Z,0.88
2023-03-26T20:35:38.754Z,0.60
2023-03-26T20:38:47.113Z,1.08
2023-03-26T20:41:56.172Z,0.73
2023-03-26T20:45:04.507Z,1.00
2023-03-26T20:48:13.921Z,0.65
2023-03-26T20:51:21.782Z,0.75
2023-03-26T20:54:30.708Z,0.93
2023-03-26T20:57:38.628Z,0.75
2023-03-26T21:00:47.110Z,1.02
2023-03-26T21:03:56.937Z,1.10
2023-03-26T21:07:17.654Z,0.80
2023-03-26T21:10:27.058Z,1.20
2023-03-26T21:13:37.964Z,0.85
2023-03-26T21:16:46.329Z,0.80
2023-03-26T21:19:56.319Z,0.80
2023-03-26T21:23:06.795Z,0.65
2023-03-26T21:26:17.832Z,0.73
2023-03-26T21:29:26.420Z,0.57
2023-03-26T21:32:35.395Z,1.10
2023-03-26T21:35:51.659Z,0.90
2023-03-26T21:39:01.447Z,0.80
2023-03-26T21:42:09.920Z,1.20
2023-03-26T21:45:19.137Z,0.70
2023-03-26T21:48:27.484Z,1.10
2023-03-26T21:51:37.888Z,0.80
2023-03-26T21:54:46.544Z,1.00
2023-03-26T21:58:12.699Z,0.90
2023-03-26T22:01:25.468Z,0.98
2023-03-26T22:04:36.783Z,0.80
2023-03-26T22:07:52.122Z,0.80
2023-03-26T22:11:00.157Z,0.73
2023-03-26T22:14:08.607Z,0.80
2023-03-26T22:17:16.540Z,0.90
2023-03-26T22:20:25.216Z,0.80
2023-03-26T22:23:36.620Z,0.75
2023-03-26T22:26:44.574Z,0.95
2023-03-26T22:29:53.011Z,1.20
2023-03-26T22:33:01.255Z,0.80
2023-03-26T22:36:22.712Z,1.00
2023-03-26T22:39:32.968Z,0.70
2023-03-26T22:42:41.281Z,0.82
2023-03-26T22:45:50.771Z,0.73
2023-03-26T22:48:59.301Z,0.63
2023-03-26T22:52:07.810Z,0.60
2023-03-26T22:55:28.360Z,1.00
2023-03-26T22:58:37.923Z,0.95
2023-03-26T23:01:46.488Z,0.90
2023-03-26T23:04:54.648Z,0.70
2023-03-26T23:08:02.470Z,0.80
2023-03-26T23:11:13.482Z,0.90
2023-03-26T23:14:21.778Z,0.65
2023-03-26T23:17:29.918Z,0.50
2023-03-26T23:20:39.963Z,0.65
2023-03-26T23:23:48.014Z,1.00
2023-03-26T23:26:57.182Z,0.68
2023-03-26T23:30:05.964Z,0.70
2023-03-26T23:33:13.702Z,0.73
2023-03-26T23:36:23.639Z,0.60
2023-03-26T23:39:33.540Z,0.80
2023-03-26T23:42:43.399Z,0.85
2023-03-26T23:45:51.736Z,0.93
2023-03-26T23:49:02.091Z,0.80
2023-03-26T23:52:11.669Z,1.05
2023-03-26T23:55:19.625Z,0.73
2023-03-26T23:58:30.614Z,0.60
